sensor_id;sensor_type;location;lat;lon;timestamp;P1;durP1;ratioP1;P2;durP2;ratioP2
12780;SDS011;6454;43.304;24.344;2023-02-24T00:00:57;9.65;;;6.05;;
12780;SDS011;6454;43.304;24.344;2023-02-24T00:03:33;9.52;;;6.50;;
12780;SDS011;6454;43.304;24.344;2023-02-24T00:06:01;7.75;;;5.18;;
12780;SDS011;6454;43.304;24.344;2023-02-24T00:08:34;9.88;;;5.65;;
12780;SDS011;6454;43.304;24.344;2023-02-24T00:11:05;13.13;;;6.03;;
12780;SDS011;6454;43.304;24.344;2023-02-24T00:13:33;10.05;;;6.55;;
12780;SDS011;6454;43.304;24.344;2023-02-24T00:16:02;9.38;;;5.45;;
12780;SDS011;6454;43.304;24.344;2023-02-24T00:18:31;7.20;;;5.57;;
12780;SDS011;6454;43.304;24.344;2023-02-24T00:21:01;9.63;;;6.10;;
12780;SDS011;6454;43.304;24.344;2023-02-24T00:23:32;8.77;;;6.13;;
12780;SDS011;6454;43.304;24.344;2023-02-24T00:26:00;9.40;;;5.43;;
12780;SDS011;6454;43.304;24.344;2023-02-24T00:28:27;9.20;;;6.82;;
12780;SDS011;6454;43.304;24.344;2023-02-24T00:30:54;9.73;;;5.82;;
12780;SDS011;6454;43.304;24.344;2023-02-24T00:33:23;8.40;;;5.72;;
12780;SDS011;6454;43.304;24.344;2023-02-24T00:35:49;8.82;;;5.80;;
12780;SDS011;6454;43.304;24.344;2023-02-24T00:38:17;8.68;;;5.90;;
12780;SDS011;6454;43.304;24.344;2023-02-24T00:40:43;8.10;;;5.90;;
12780;SDS011;6454;43.304;24.344;2023-02-24T00:43:10;8.30;;;5.80;;
12780;SDS011;6454;43.304;24.344;2023-02-24T00:45:37;8.73;;;5.55;;
12780;SDS011;6454;43.304;24.344;2023-02-24T00:48:04;7.63;;;5.90;;
12780;SDS011;6454;43.304;24.344;2023-02-24T00:50:36;8.82;;;6.07;;
12780;SDS011;6454;43.304;24.344;2023-02-24T00:53:04;10.60;;;6.03;;
12780;SDS011;6454;43.304;24.344;2023-02-24T00:55:31;10.05;;;6.43;;
12780;SDS011;6454;43.304;24.344;2023-02-24T00:58:01;8.60;;;6.15;;
12780;SDS011;6454;43.304;24.344;2023-02-24T01:00:29;12.32;;;6.95;;
12780;SDS011;6454;43.304;24.344;2023-02-24T01:03:00;10.27;;;7.25;;
12780;SDS011;6454;43.304;24.344;2023-02-24T01:05:27;11.07;;;6.93;;
12780;SDS011;6454;43.304;24.344;2023-02-24T01:07:56;11.38;;;7.28;;
12780;SDS011;6454;43.304;24.344;2023-02-24T01:10:23;8.07;;;6.00;;
12780;SDS011;6454;43.304;24.344;2023-02-24T01:12:52;8.63;;;5.82;;
12780;SDS011;6454;43.304;24.344;2023-02-24T01:15:18;7.38;;;5.78;;
12780;SDS011;6454;43.304;24.344;2023-02-24T01:17:47;7.95;;;5.88;;
12780;SDS011;6454;43.304;24.344;2023-02-24T01:20:14;10.10;;;6.00;;
12780;SDS011;6454;43.304;24.344;2023-02-24T01:22:43;12.65;;;5.95;;
12780;SDS011;6454;43.304;24.344;2023-02-24T01:25:12;7.70;;;5.25;;
12780;SDS011;6454;43.304;24.344;2023-02-24T01:27:40;8.47;;;5.80;;
12780;SDS011;6454;43.304;24.344;2023-02-24T01:30:07;11.93;;;5.53;;
12780;SDS011;6454;43.304;24.344;2023-02-24T01:32:39;9.45;;;6.38;;
12780;SDS011;6454;43.304;24.344;2023-02-24T01:35:07;7.60;;;5.90;;
12780;SDS011;6454;43.304;24.344;2023-02-24T01:37:36;8.70;;;5.60;;
12780;SDS011;6454;43.304;24.344;2023-02-24T01:40:03;7.95;;;5.47;;
12780;SDS011;6454;43.304;24.344;2023-02-24T01:42:40;10.50;;;5.93;;
12780;SDS011;6454;43.304;24.344;2023-02-24T01:45:11;8.77;;;5.88;;
12780;SDS011;6454;43.304;24.344;2023-02-24T01:47:40;10.30;;;5.85;;
12780;SDS011;6454;43.304;24.344;2023-02-24T01:50:09;8.90;;;6.32;;
12780;SDS011;6454;43.304;24.344;2023-02-24T01:52:39;9.65;;;6.10;;
12780;SDS011;6454;43.304;24.344;2023-02-24T01:55:11;8.40;;;6.15;;
12780;SDS011;6454;43.304;24.344;2023-02-24T01:57:45;9.60;;;5.83;;
12780;SDS011;6454;43.304;24.344;2023-02-24T02:00:14;9.20;;;6.32;;
12780;SDS011;6454;43.304;24.344;2023-02-24T02:03:01;8.10;;;5.50;;
12780;SDS011;6454;43.304;24.344;2023-02-24T02:05:35;9.05;;;6.40;;
12780;SDS011;6454;43.304;24.344;2023-02-24T02:08:04;7.55;;;5.45;;
12780;SDS011;6454;43.304;24.344;2023-02-24T02:10:33;8.25;;;5.53;;
12780;SDS011;6454;43.304;24.344;2023-02-24T02:13:04;11.73;;;6.40;;
12780;SDS011;6454;43.304;24.344;2023-02-24T02:15:31;8.82;;;6.07;;
12780;SDS011;6454;43.304;24.344;2023-02-24T02:18:08;10.45;;;6.40;;
12780;SDS011;6454;43.304;24.344;2023-02-24T02:20:52;6.87;;;5.27;;
12780;SDS011;6454;43.304;24.344;2023-02-24T02:35:57;10.15;;;5.90;;
12780;SDS011;6454;43.304;24.344;2023-02-24T02:38:38;9.30;;;5.70;;
12780;SDS011;6454;43.304;24.344;2023-02-24T02:41:16;9.48;;;5.80;;
12780;SDS011;6454;43.304;24.344;2023-02-24T02:43:47;8.25;;;5.93;;
12780;SDS011;6454;43.304;24.344;2023-02-24T02:46:21;9.20;;;5.88;;
12780;SDS011;6454;43.304;24.344;2023-02-24T02:49:00;10.53;;;6.60;;
12780;SDS011;6454;43.304;24.344;2023-02-24T02:51:33;10.55;;;6.40;;
12780;SDS011;6454;43.304;24.344;2023-02-24T02:54:05;10.07;;;6.43;;
12780;SDS011;6454;43.304;24.344;2023-02-24T02:56:39;8.95;;;5.65;;
12780;SDS011;6454;43.304;24.344;2023-02-24T02:59:11;8.55;;;6.15;;
12780;SDS011;6454;43.304;24.344;2023-02-24T03:01:46;9.45;;;5.57;;
12780;SDS011;6454;43.304;24.344;2023-02-24T03:04:15;9.17;;;6.00;;
12780;SDS011;6454;43.304;24.344;2023-02-24T03:06:49;8.65;;;5.70;;
12780;SDS011;6454;43.304;24.344;2023-02-24T03:09:21;10.15;;;6.03;;
12780;SDS011;6454;43.304;24.344;2023-02-24T03:11:52;11.10;;;6.07;;
12780;SDS011;6454;43.304;24.344;2023-02-24T03:14:24;8.85;;;5.97;;
12780;SDS011;6454;43.304;24.344;2023-02-24T03:16:54;9.10;;;5.47;;
12780;SDS011;6454;43.304;24.344;2023-02-24T03:19:29;8.20;;;5.73;;
12780;SDS011;6454;43.304;24.344;2023-02-24T03:22:05;8.52;;;5.70;;
12780;SDS011;6454;43.304;24.344;2023-02-24T03:24:37;8.40;;;5.70;;
12780;SDS011;6454;43.304;24.344;2023-02-24T03:27:05;10.40;;;5.93;;
12780;SDS011;6454;43.304;24.344;2023-02-24T03:29:38;8.15;;;5.45;;
12780;SDS011;6454;43.304;24.344;2023-02-24T03:32:14;11.60;;;5.43;;
12780;SDS011;6454;43.304;24.344;2023-02-24T03:34:47;9.25;;;5.15;;
12780;SDS011;6454;43.304;24.344;2023-02-24T03:37:23;7.82;;;5.35;;
12780;SDS011;6454;43.304;24.344;2023-02-24T03:39:52;9.38;;;5.75;;
12780;SDS011;6454;43.304;24.344;2023-02-24T03:42:23;10.88;;;5.85;;
12780;SDS011;6454;43.304;24.344;2023-02-24T03:44:55;11.10;;;6.20;;
12780;SDS011;6454;43.304;24.344;2023-02-24T03:47:22;8.73;;;5.10;;
12780;SDS011;6454;43.304;24.344;2023-02-24T03:49:50;8.52;;;5.47;;
12780;SDS011;6454;43.304;24.344;2023-02-24T03:52:21;9.98;;;5.70;;
12780;SDS011;6454;43.304;24.344;2023-02-24T03:55:04;10.00;;;5.68;;
12780;SDS011;6454;43.304;24.344;2023-02-24T03:57:42;8.57;;;5.35;;
12780;SDS011;6454;43.304;24.344;2023-02-24T04:00:25;9.25;;;5.28;;
12780;SDS011;6454;43.304;24.344;2023-02-24T04:03:01;10.13;;;5.53;;
12780;SDS011;6454;43.304;24.344;2023-02-24T04:05:36;8.93;;;5.13;;
12780;SDS011;6454;43.304;24.344;2023-02-24T04:08:13;7.05;;;5.13;;
12780;SDS011;6454;43.304;24.344;2023-02-24T04:10:45;10.43;;;5.85;;
12780;SDS011;6454;43.304;24.344;2023-02-24T04:13:23;7.38;;;5.28;;
12780;SDS011;6454;43.304;24.344;2023-02-24T04:16:00;6.77;;;5.40;;
12780;SDS011;6454;43.304;24.344;2023-02-24T04:18:35;13.37;;;6.33;;
12780;SDS011;6454;43.304;24.344;2023-02-24T04:21:03;11.15;;;6.57;;
12780;SDS011;6454;43.304;24.344;2023-02-24T04:23:35;12.77;;;6.20;;
12780;SDS011;6454;43.304;24.344;2023-02-24T04:26:04;7.97;;;5.45;;
12780;SDS011;6454;43.304;24.344;2023-02-24T04:28:32;8.23;;;5.70;;
12780;SDS011;6454;43.304;24.344;2023-02-24T04:31:00;9.00;;;5.33;;
12780;SDS011;6454;43.304;24.344;2023-02-24T04:33:34;7.67;;;5.23;;
12780;SDS011;6454;43.304;24.344;2023-02-24T04:36:03;9.33;;;5.70;;
12780;SDS011;6454;43.304;24.344;2023-02-24T04:38:34;15.20;;;6.47;;
12780;SDS011;6454;43.304;24.344;2023-02-24T04:41:02;12.77;;;7.20;;
12780;SDS011;6454;43.304;24.344;2023-02-24T04:43:29;15.03;;;7.73;;
12780;SDS011;6454;43.304;24.344;2023-02-24T04:45:55;9.90;;;6.10;;
12780;SDS011;6454;43.304;24.344;2023-02-24T04:48:22;11.27;;;6.77;;
12780;SDS011;6454;43.304;24.344;2023-02-24T04:50:49;13.00;;;6.93;;
12780;SDS011;6454;43.304;24.344;2023-02-24T04:53:19;13.73;;;6.93;;
12780;SDS011;6454;43.304;24.344;2023-02-24T04:55:52;10.80;;;7.13;;
12780;SDS011;6454;43.304;24.344;2023-02-24T04:58:21;9.90;;;6.03;;
12780;SDS011;6454;43.304;24.344;2023-02-24T05:00:52;9.63;;;6.07;;
12780;SDS011;6454;43.304;24.344;2023-02-24T05:03:21;12.10;;;5.77;;
12780;SDS011;6454;43.304;24.344;2023-02-24T05:05:53;8.73;;;6.07;;
12780;SDS011;6454;43.304;24.344;2023-02-24T05:08:22;11.30;;;5.97;;
12780;SDS011;6454;43.304;24.344;2023-02-24T05:10:49;8.03;;;5.97;;
12780;SDS011;6454;43.304;24.344;2023-02-24T05:13:19;9.10;;;5.90;;
12780;SDS011;6454;43.304;24.344;2023-02-24T05:15:49;11.70;;;7.30;;
12780;SDS011;6454;43.304;24.344;2023-02-24T05:18:16;10.87;;;6.90;;
12780;SDS011;6454;43.304;24.344;2023-02-24T05:20:44;16.20;;;8.87;;
12780;SDS011;6454;43.304;24.344;2023-02-24T05:23:31;14.17;;;7.73;;
12780;SDS011;6454;43.304;24.344;2023-02-24T05:26:01;14.53;;;8.40;;
12780;SDS011;6454;43.304;24.344;2023-02-24T05:28:32;11.80;;;7.13;;
12780;SDS011;6454;43.304;24.344;2023-02-24T05:31:02;9.93;;;6.70;;
12780;SDS011;6454;43.304;24.344;2023-02-24T05:33:32;10.50;;;6.30;;
12780;SDS011;6454;43.304;24.344;2023-02-24T05:36:01;9.97;;;7.07;;
12780;SDS011;6454;43.304;24.344;2023-02-24T05:38:28;15.77;;;6.67;;
12780;SDS011;6454;43.304;24.344;2023-02-24T05:41:02;8.83;;;6.10;;
12780;SDS011;6454;43.304;24.344;2023-02-24T05:43:32;7.40;;;5.93;;
12780;SDS011;6454;43.304;24.344;2023-02-24T05:46:03;10.53;;;6.37;;
12780;SDS011;6454;43.304;24.344;2023-02-24T05:48:31;9.93;;;5.80;;
12780;SDS011;6454;43.304;24.344;2023-02-24T05:50:59;9.30;;;5.80;;
12780;SDS011;6454;43.304;24.344;2023-02-24T05:53:27;8.33;;;5.97;;
12780;SDS011;6454;43.304;24.344;2023-02-24T05:55:54;13.67;;;6.60;;
12780;SDS011;6454;43.304;24.344;2023-02-24T05:58:22;9.73;;;6.47;;
12780;SDS011;6454;43.304;24.344;2023-02-24T06:00:50;12.80;;;6.97;;
12780;SDS011;6454;43.304;24.344;2023-02-24T06:03:16;11.20;;;6.93;;
12780;SDS011;6454;43.304;24.344;2023-02-24T06:05:55;11.90;;;7.03;;
12780;SDS011;6454;43.304;24.344;2023-02-24T06:08:29;7.47;;;6.30;;
12780;SDS011;6454;43.304;24.344;2023-02-24T06:11:06;12.67;;;6.30;;
12780;SDS011;6454;43.304;24.344;2023-02-24T06:13:36;11.20;;;7.37;;
12780;SDS011;6454;43.304;24.344;2023-02-24T06:16:03;11.77;;;6.03;;
12780;SDS011;6454;43.304;24.344;2023-02-24T06:18:31;8.77;;;6.77;;
12780;SDS011;6454;43.304;24.344;2023-02-24T06:20:59;9.33;;;7.00;;
12780;SDS011;6454;43.304;24.344;2023-02-24T06:23:26;9.67;;;7.03;;
12780;SDS011;6454;43.304;24.344;2023-02-24T06:25:53;14.30;;;8.17;;
12780;SDS011;6454;43.304;24.344;2023-02-24T06:28:22;12.47;;;7.40;;
12780;SDS011;6454;43.304;24.344;2023-02-24T06:30:51;11.73;;;7.83;;
12780;SDS011;6454;43.304;24.344;2023-02-24T06:33:18;9.87;;;7.07;;
12780;SDS011;6454;43.304;24.344;2023-02-24T06:35:46;9.73;;;7.30;;
12780;SDS011;6454;43.304;24.344;2023-02-24T06:38:13;11.63;;;6.83;;
12780;SDS011;6454;43.304;24.344;2023-02-24T06:40:40;12.50;;;7.00;;
12780;SDS011;6454;43.304;24.344;2023-02-24T06:43:07;7.43;;;6.07;;
12780;SDS011;6454;43.304;24.344;2023-02-24T06:45:35;11.75;;;6.90;;
12780;SDS011;6454;43.304;24.344;2023-02-24T06:48:03;8.80;;;6.30;;
12780;SDS011;6454;43.304;24.344;2023-02-24T06:50:31;10.68;;;6.32;;
12780;SDS011;6454;43.304;24.344;2023-02-24T06:52:58;12.52;;;6.57;;
12780;SDS011;6454;43.304;24.344;2023-02-24T06:55:26;10.50;;;6.63;;
12780;SDS011;6454;43.304;24.344;2023-02-24T06:57:54;10.73;;;6.90;;
12780;SDS011;6454;43.304;24.344;2023-02-24T07:00:24;8.77;;;6.47;;
12780;SDS011;6454;43.304;24.344;2023-02-24T07:03:03;10.27;;;6.75;;
12780;SDS011;6454;43.304;24.344;2023-02-24T07:05:39;10.03;;;6.33;;
12780;SDS011;6454;43.304;24.344;2023-02-24T07:08:14;10.33;;;6.70;;
12780;SDS011;6454;43.304;24.344;2023-02-24T07:10:50;8.77;;;6.67;;
12780;SDS011;6454;43.304;24.344;2023-02-24T07:13:20;11.65;;;6.18;;
12780;SDS011;6454;43.304;24.344;2023-02-24T07:15:48;10.07;;;6.70;;
12780;SDS011;6454;43.304;24.344;2023-02-24T07:18:17;11.35;;;7.00;;
12780;SDS011;6454;43.304;24.344;2023-02-24T07:20:44;11.93;;;7.05;;
12780;SDS011;6454;43.304;24.344;2023-02-24T07:23:12;9.85;;;7.45;;
12780;SDS011;6454;43.304;24.344;2023-02-24T07:25:39;10.93;;;7.15;;
12780;SDS011;6454;43.304;24.344;2023-02-24T07:28:07;12.07;;;7.60;;
12780;SDS011;6454;43.304;24.344;2023-02-24T07:30:36;13.25;;;8.52;;
12780;SDS011;6454;43.304;24.344;2023-02-24T07:33:04;12.25;;;8.52;;
12780;SDS011;6454;43.304;24.344;2023-02-24T07:35:33;14.70;;;8.63;;
12780;SDS011;6454;43.304;24.344;2023-02-24T07:38:00;11.15;;;8.63;;
12780;SDS011;6454;43.304;24.344;2023-02-24T07:40:29;15.02;;;8.32;;
12780;SDS011;6454;43.304;24.344;2023-02-24T07:42:58;12.95;;;8.68;;
12780;SDS011;6454;43.304;24.344;2023-02-24T07:45:25;11.50;;;8.15;;
12780;SDS011;6454;43.304;24.344;2023-02-24T07:47:53;10.93;;;7.73;;
12780;SDS011;6454;43.304;24.344;2023-02-24T07:50:19;10.65;;;8.60;;
12780;SDS011;6454;43.304;24.344;2023-02-24T07:52:47;13.65;;;8.90;;
12780;SDS011;6454;43.304;24.344;2023-02-24T07:55:15;11.32;;;8.45;;
12780;SDS011;6454;43.304;24.344;2023-02-24T07:57:42;12.65;;;8.20;;
12780;SDS011;6454;43.304;24.344;2023-02-24T08:00:11;10.70;;;8.50;;
12780;SDS011;6454;43.304;24.344;2023-02-24T08:02:42;11.82;;;8.30;;
12780;SDS011;6454;43.304;24.344;2023-02-24T08:05:10;11.95;;;8.45;;
12780;SDS011;6454;43.304;24.344;2023-02-24T08:07:37;11.52;;;8.50;;
12780;SDS011;6454;43.304;24.344;2023-02-24T08:10:06;10.88;;;7.80;;
12780;SDS011;6454;43.304;24.344;2023-02-24T08:12:48;11.40;;;7.50;;
12780;SDS011;6454;43.304;24.344;2023-02-24T08:15:21;11.75;;;8.52;;
12780;SDS011;6454;43.304;24.344;2023-02-24T08:17:50;11.50;;;7.80;;
12780;SDS011;6454;43.304;24.344;2023-02-24T08:20:18;9.85;;;8.07;;
12780;SDS011;6454;43.304;24.344;2023-02-24T08:22:50;12.30;;;7.90;;
12780;SDS011;6454;43.304;24.344;2023-02-24T08:25:20;10.73;;;7.65;;
12780;SDS011;6454;43.304;24.344;2023-02-24T08:27:49;9.25;;;7.30;;
12780;SDS011;6454;43.304;24.344;2023-02-24T08:30:21;10.18;;;8.27;;
12780;SDS011;6454;43.304;24.344;2023-02-24T08:32:49;10.32;;;7.70;;
12780;SDS011;6454;43.304;24.344;2023-02-24T08:35:22;12.05;;;8.18;;
12780;SDS011;6454;43.304;24.344;2023-02-24T08:37:56;12.35;;;8.70;;
12780;SDS011;6454;43.304;24.344;2023-02-24T08:40:27;10.38;;;8.00;;
12780;SDS011;6454;43.304;24.344;2023-02-24T08:43:13;11.73;;;8.52;;
12780;SDS011;6454;43.304;24.344;2023-02-24T08:45:45;10.35;;;8.07;;
12780;SDS011;6454;43.304;24.344;2023-02-24T08:48:17;11.73;;;7.78;;
12780;SDS011;6454;43.304;24.344;2023-02-24T08:50:56;11.90;;;8.15;;
12780;SDS011;6454;43.304;24.344;2023-02-24T08:53:25;12.23;;;7.93;;
12780;SDS011;6454;43.304;24.344;2023-02-24T08:55:57;11.75;;;9.02;;
12780;SDS011;6454;43.304;24.344;2023-02-24T08:58:33;12.02;;;8.70;;
12780;SDS011;6454;43.304;24.344;2023-02-24T09:01:05;9.63;;;8.45;;
12780;SDS011;6454;43.304;24.344;2023-02-24T09:03:43;11.18;;;8.50;;
12780;SDS011;6454;43.304;24.344;2023-02-24T09:06:11;11.02;;;8.18;;
12780;SDS011;6454;43.304;24.344;2023-02-24T09:08:41;10.85;;;7.93;;
12780;SDS011;6454;43.304;24.344;2023-02-24T09:11:11;12.82;;;9.00;;
12780;SDS011;6454;43.304;24.344;2023-02-24T09:13:40;11.13;;;8.93;;
12780;SDS011;6454;43.304;24.344;2023-02-24T09:16:16;10.43;;;8.55;;
12780;SDS011;6454;43.304;24.344;2023-02-24T09:18:44;12.10;;;8.43;;
12780;SDS011;6454;43.304;24.344;2023-02-24T09:21:31;10.35;;;8.20;;
12780;SDS011;6454;43.304;24.344;2023-02-24T09:24:23;13.63;;;8.73;;
12780;SDS011;6454;43.304;24.344;2023-02-24T09:26:53;14.02;;;8.10;;
12780;SDS011;6454;43.304;24.344;2023-02-24T09:29:22;12.27;;;9.65;;
12780;SDS011;6454;43.304;24.344;2023-02-24T09:31:59;11.10;;;8.80;;
12780;SDS011;6454;43.304;24.344;2023-02-24T09:34:38;10.93;;;8.77;;
12780;SDS011;6454;43.304;24.344;2023-02-24T09:37:08;14.18;;;8.80;;
12780;SDS011;6454;43.304;24.344;2023-02-24T09:39:49;10.90;;;8.55;;
12780;SDS011;6454;43.304;24.344;2023-02-24T09:42:40;12.00;;;8.98;;
12780;SDS011;6454;43.304;24.344;2023-02-24T09:45:15;10.25;;;8.50;;
12780;SDS011;6454;43.304;24.344;2023-02-24T09:47:56;10.65;;;9.25;;
12780;SDS011;6454;43.304;24.344;2023-02-24T09:50:34;13.77;;;8.75;;
12780;SDS011;6454;43.304;24.344;2023-02-24T09:53:11;13.88;;;8.70;;
12780;SDS011;6454;43.304;24.344;2023-02-24T09:55:43;14.85;;;9.43;;
12780;SDS011;6454;43.304;24.344;2023-02-24T09:58:31;13.55;;;9.57;;
12780;SDS011;6454;43.304;24.344;2023-02-24T10:01:06;12.43;;;10.13;;
12780;SDS011;6454;43.304;24.344;2023-02-24T10:03:47;13.38;;;9.80;;
12780;SDS011;6454;43.304;24.344;2023-02-24T10:06:28;12.80;;;9.70;;
12780;SDS011;6454;43.304;24.344;2023-02-24T10:09:02;11.02;;;9.35;;
12780;SDS011;6454;43.304;24.344;2023-02-24T10:11:37;13.85;;;9.38;;
12780;SDS011;6454;43.304;24.344;2023-02-24T10:14:19;11.05;;;9.85;;
12780;SDS011;6454;43.304;24.344;2023-02-24T10:16:53;14.55;;;10.10;;
12780;SDS011;6454;43.304;24.344;2023-02-24T10:19:38;13.13;;;9.57;;
12780;SDS011;6454;43.304;24.344;2023-02-24T10:22:07;14.75;;;9.88;;
12780;SDS011;6454;43.304;24.344;2023-02-24T10:24:52;12.20;;;9.77;;
12780;SDS011;6454;43.304;24.344;2023-02-24T10:27:36;14.95;;;10.02;;
12780;SDS011;6454;43.304;24.344;2023-02-24T10:30:23;14.65;;;9.77;;
12780;SDS011;6454;43.304;24.344;2023-02-24T10:33:08;15.57;;;10.23;;
12780;SDS011;6454;43.304;24.344;2023-02-24T10:35:45;13.05;;;10.02;;
12780;SDS011;6454;43.304;24.344;2023-02-24T10:38:12;14.23;;;9.55;;
12780;SDS011;6454;43.304;24.344;2023-02-24T10:40:43;14.15;;;10.35;;
12780;SDS011;6454;43.304;24.344;2023-02-24T10:43:17;14.43;;;9.90;;
12780;SDS011;6454;43.304;24.344;2023-02-24T10:45:55;12.73;;;10.00;;
12780;SDS011;6454;43.304;24.344;2023-02-24T10:48:30;12.68;;;9.55;;
12780;SDS011;6454;43.304;24.344;2023-02-24T10:51:09;15.82;;;9.98;;
12780;SDS011;6454;43.304;24.344;2023-02-24T10:53:45;20.52;;;12.10;;
12780;SDS011;6454;43.304;24.344;2023-02-24T10:56:33;16.00;;;9.65;;
12780;SDS011;6454;43.304;24.344;2023-02-24T10:59:09;13.23;;;10.02;;
12780;SDS011;6454;43.304;24.344;2023-02-24T11:02:01;12.82;;;10.30;;
12780;SDS011;6454;43.304;24.344;2023-02-24T11:04:50;18.23;;;12.30;;
12780;SDS011;6454;43.304;24.344;2023-02-24T11:07:41;15.75;;;11.25;;
12780;SDS011;6454;43.304;24.344;2023-02-24T11:10:18;14.98;;;10.00;;
12780;SDS011;6454;43.304;24.344;2023-02-24T11:12:51;12.65;;;9.90;;
12780;SDS011;6454;43.304;24.344;2023-02-24T11:15:41;15.48;;;10.98;;
12780;SDS011;6454;43.304;24.344;2023-02-24T11:18:28;16.88;;;11.07;;
12780;SDS011;6454;43.304;24.344;2023-02-24T11:20:57;14.75;;;10.65;;
12780;SDS011;6454;43.304;24.344;2023-02-24T11:23:26;13.30;;;10.48;;
12780;SDS011;6454;43.304;24.344;2023-02-24T11:25:57;12.95;;;10.50;;
12780;SDS011;6454;43.304;24.344;2023-02-24T11:28:35;14.05;;;10.93;;
12780;SDS011;6454;43.304;24.344;2023-02-24T11:31:16;14.30;;;11.23;;
12780;SDS011;6454;43.304;24.344;2023-02-24T11:33:57;16.08;;;11.80;;
12780;SDS011;6454;43.304;24.344;2023-02-24T11:36:36;14.35;;;11.45;;
12780;SDS011;6454;43.304;24.344;2023-02-24T11:39:16;14.88;;;11.63;;
12780;SDS011;6454;43.304;24.344;2023-02-24T11:41:58;13.77;;;11.02;;
12780;SDS011;6454;43.304;24.344;2023-02-24T11:44:28;15.00;;;11.77;;
12780;SDS011;6454;43.304;24.344;2023-02-24T11:47:00;14.60;;;11.82;;
12780;SDS011;6454;43.304;24.344;2023-02-24T11:49:35;14.05;;;11.20;;
12780;SDS011;6454;43.304;24.344;2023-02-24T11:52:09;13.15;;;11.63;;
12780;SDS011;6454;43.304;24.344;2023-02-24T11:54:42;16.38;;;12.07;;
12780;SDS011;6454;43.304;24.344;2023-02-24T11:57:15;16.02;;;12.00;;
12780;SDS011;6454;43.304;24.344;2023-02-24T11:59:47;13.55;;;11.35;;
12780;SDS011;6454;43.304;24.344;2023-02-24T12:02:18;16.02;;;11.25;;
12780;SDS011;6454;43.304;24.344;2023-02-24T12:05:08;14.75;;;11.45;;
12780;SDS011;6454;43.304;24.344;2023-02-24T12:07:38;14.35;;;11.60;;
12780;SDS011;6454;43.304;24.344;2023-02-24T12:10:12;14.32;;;11.20;;
12780;SDS011;6454;43.304;24.344;2023-02-24T12:12:45;17.52;;;12.98;;
12780;SDS011;6454;43.304;24.344;2023-02-24T12:15:18;15.13;;;12.13;;
12780;SDS011;6454;43.304;24.344;2023-02-24T12:17:52;16.88;;;12.50;;
12780;SDS011;6454;43.304;24.344;2023-02-24T12:20:29;17.73;;;12.57;;
12780;SDS011;6454;43.304;24.344;2023-02-24T12:23:00;16.95;;;13.18;;
12780;SDS011;6454;43.304;24.344;2023-02-24T12:25:36;17.45;;;12.35;;
12780;SDS011;6454;43.304;24.344;2023-02-24T12:28:12;15.65;;;12.13;;
12780;SDS011;6454;43.304;24.344;2023-02-24T12:30:55;19.40;;;13.45;;
12780;SDS011;6454;43.304;24.344;2023-02-24T12:33:43;15.35;;;12.63;;
12780;SDS011;6454;43.304;24.344;2023-02-24T12:36:26;14.95;;;11.60;;
12780;SDS011;6454;43.304;24.344;2023-02-24T12:39:08;17.30;;;12.40;;
12780;SDS011;6454;43.304;24.344;2023-02-24T12:41:46;19.73;;;12.68;;
12780;SDS011;6454;43.304;24.344;2023-02-24T12:44:24;17.80;;;12.85;;
12780;SDS011;6454;43.304;24.344;2023-02-24T12:47:01;16.42;;;13.07;;
12780;SDS011;6454;43.304;24.344;2023-02-24T12:49:35;17.48;;;12.65;;
12780;SDS011;6454;43.304;24.344;2023-02-24T12:52:26;18.20;;;12.73;;
12780;SDS011;6454;43.304;24.344;2023-02-24T12:55:00;16.08;;;13.60;;
12780;SDS011;6454;43.304;24.344;2023-02-24T12:57:38;17.05;;;13.23;;
12780;SDS011;6454;43.304;24.344;2023-02-24T13:00:15;17.98;;;13.68;;
12780;SDS011;6454;43.304;24.344;2023-02-24T13:02:50;18.15;;;13.23;;
12780;SDS011;6454;43.304;24.344;2023-02-24T13:05:27;18.02;;;13.93;;
12780;SDS011;6454;43.304;24.344;2023-02-24T13:08:05;19.70;;;14.00;;
12780;SDS011;6454;43.304;24.344;2023-02-24T13:10:45;19.15;;;13.75;;
12780;SDS011;6454;43.304;24.344;2023-02-24T13:13:15;18.20;;;13.80;;
12780;SDS011;6454;43.304;24.344;2023-02-24T13:15:51;19.40;;;14.63;;
12780;SDS011;6454;43.304;24.344;2023-02-24T13:18:22;18.63;;;13.70;;
12780;SDS011;6454;43.304;24.344;2023-02-24T13:20:59;17.15;;;12.98;;
12780;SDS011;6454;43.304;24.344;2023-02-24T13:23:32;18.80;;;14.13;;
12780;SDS011;6454;43.304;24.344;2023-02-24T13:25:59;18.45;;;14.00;;
12780;SDS011;6454;43.304;24.344;2023-02-24T13:28:27;19.15;;;13.77;;
12780;SDS011;6454;43.304;24.344;2023-02-24T13:30:59;19.48;;;14.05;;
12780;SDS011;6454;43.304;24.344;2023-02-24T13:33:29;21.95;;;15.52;;
12780;SDS011;6454;43.304;24.344;2023-02-24T13:38:44;20.30;;;14.02;;
12780;SDS011;6454;43.304;24.344;2023-02-24T13:41:20;18.23;;;14.05;;
12780;SDS011;6454;43.304;24.344;2023-02-24T13:44:22;21.42;;;14.98;;
12780;SDS011;6454;43.304;24.344;2023-02-24T13:46:58;19.75;;;14.20;;
12780;SDS011;6454;43.304;24.344;2023-02-24T13:49:47;23.33;;;15.85;;
12780;SDS011;6454;43.304;24.344;2023-02-24T13:52:27;20.08;;;15.80;;
12780;SDS011;6454;43.304;24.344;2023-02-24T13:58:02;20.15;;;13.75;;
12780;SDS011;6454;43.304;24.344;2023-02-24T14:00:48;19.40;;;14.45;;
12780;SDS011;6454;43.304;24.344;2023-02-24T14:03:26;19.80;;;14.52;;
12780;SDS011;6454;43.304;24.344;2023-02-24T14:05:54;20.40;;;14.85;;
12780;SDS011;6454;43.304;24.344;2023-02-24T14:08:24;20.48;;;15.07;;
12780;SDS011;6454;43.304;24.344;2023-02-24T14:10:58;19.52;;;15.05;;
12780;SDS011;6454;43.304;24.344;2023-02-24T14:13:28;22.85;;;15.80;;
12780;SDS011;6454;43.304;24.344;2023-02-24T14:15:58;20.42;;;14.02;;
12780;SDS011;6454;43.304;24.344;2023-02-24T14:18:27;20.38;;;15.15;;
12780;SDS011;6454;43.304;24.344;2023-02-24T14:20:55;19.23;;;15.00;;
12780;SDS011;6454;43.304;24.344;2023-02-24T14:23:24;21.00;;;15.95;;
12780;SDS011;6454;43.304;24.344;2023-02-24T14:25:53;17.75;;;14.35;;
12780;SDS011;6454;43.304;24.344;2023-02-24T14:28:25;18.75;;;13.88;;
12780;SDS011;6454;43.304;24.344;2023-02-24T14:30:54;18.15;;;14.40;;
12780;SDS011;6454;43.304;24.344;2023-02-24T14:33:25;20.17;;;14.63;;
12780;SDS011;6454;43.304;24.344;2023-02-24T14:35:55;17.55;;;13.63;;
12780;SDS011;6454;43.304;24.344;2023-02-24T14:38:29;16.25;;;14.10;;
12780;SDS011;6454;43.304;24.344;2023-02-24T14:40:59;18.38;;;13.80;;
12780;SDS011;6454;43.304;24.344;2023-02-24T14:43:27;17.80;;;14.00;;
12780;SDS011;6454;43.304;24.344;2023-02-24T14:45:54;20.50;;;13.45;;
12780;SDS011;6454;43.304;24.344;2023-02-24T14:48:23;17.35;;;13.23;;
12780;SDS011;6454;43.304;24.344;2023-02-24T14:50:51;20.05;;;14.40;;
12780;SDS011;6454;43.304;24.344;2023-02-24T14:53:20;17.90;;;14.00;;
12780;SDS011;6454;43.304;24.344;2023-02-24T14:55:50;18.85;;;13.93;;
12780;SDS011;6454;43.304;24.344;2023-02-24T14:58:22;17.85;;;13.98;;
12780;SDS011;6454;43.304;24.344;2023-02-24T15:00:55;18.45;;;13.73;;
12780;SDS011;6454;43.304;24.344;2023-02-24T15:03:27;19.88;;;13.23;;
12780;SDS011;6454;43.304;24.344;2023-02-24T15:06:12;22.65;;;15.93;;
12780;SDS011;6454;43.304;24.344;2023-02-24T15:08:45;23.38;;;16.77;;
12780;SDS011;6454;43.304;24.344;2023-02-24T15:11:17;21.02;;;15.45;;
12780;SDS011;6454;43.304;24.344;2023-02-24T15:13:47;20.75;;;14.75;;
12780;SDS011;6454;43.304;24.344;2023-02-24T15:16:19;17.92;;;14.00;;
12780;SDS011;6454;43.304;24.344;2023-02-24T15:18:49;19.88;;;14.35;;
12780;SDS011;6454;43.304;24.344;2023-02-24T15:21:18;21.70;;;15.45;;
12780;SDS011;6454;43.304;24.344;2023-02-24T15:23:47;30.23;;;18.27;;